sensor_id;sensor_type;location;lat;lon;timestamp;P1;durP1;ratioP1;P2;durP2;ratioP2
64401;SDS011;50724;42.376;23.768;2023-05-07T00:00:21;10.50;;;5.20;;
64401;SDS011;50724;42.376;23.768;2023-05-07T00:03:22;10.15;;;4.88;;
64401;SDS011;50724;42.376;23.768;2023-05-07T00:06:23;9.82;;;5.55;;
64401;SDS011;50724;42.376;23.768;2023-05-07T00:09:24;9.18;;;5.43;;
64401;SDS011;50724;42.376;23.768;2023-05-07T00:12:24;11.27;;;6.32;;
64401;SDS011;50724;42.376;23.768;2023-05-07T00:15:25;10.43;;;5.65;;
64401;SDS011;50724;42.376;23.768;2023-05-07T00:18:25;14.23;;;5.40;;
64401;SDS011;50724;42.376;23.768;2023-05-07T00:21:26;12.85;;;5.70;;
64401;SDS011;50724;42.376;23.768;2023-05-07T00:24:26;8.83;;;5.03;;
64401;SDS011;50724;42.376;23.768;2023-05-07T00:27:27;11.50;;;5.80;;
64401;SDS011;50724;42.376;23.768;2023-05-07T00:30:27;10.03;;;5.27;;
64401;SDS011;50724;42.376;23.768;2023-05-07T00:33:28;10.77;;;6.53;;
64401;SDS011;50724;42.376;23.768;2023-05-07T00:36:28;9.48;;;5.63;;
64401;SDS011;50724;42.376;23.768;2023-05-07T00:39:29;12.57;;;5.38;;
64401;SDS011;50724;42.376;23.768;2023-05-07T00:42:29;9.37;;;6.03;;
64401;SDS011;50724;42.376;23.768;2023-05-07T00:45:30;10.25;;;5.43;;
64401;SDS011;50724;42.376;23.768;2023-05-07T00:48:30;13.45;;;6.28;;
64401;SDS011;50724;42.376;23.768;2023-05-07T00:51:32;10.68;;;5.57;;
64401;SDS011;50724;42.376;23.768;2023-05-07T00:54:33;11.48;;;6.78;;
64401;SDS011;50724;42.376;23.768;2023-05-07T00:57:37;13.02;;;6.53;;
64401;SDS011;50724;42.376;23.768;2023-05-07T01:00:40;10.63;;;6.28;;
64401;SDS011;50724;42.376;23.768;2023-05-07T01:03:40;12.38;;;6.68;;
64401;SDS011;50724;42.376;23.768;2023-05-07T01:06:41;13.10;;;6.65;;
64401;SDS011;50724;42.376;23.768;2023-05-07T01:09:41;15.27;;;8.32;;
64401;SDS011;50724;42.376;23.768;2023-05-07T01:12:42;10.98;;;6.63;;
64401;SDS011;50724;42.376;23.768;2023-05-07T01:15:45;13.98;;;7.15;;
64401;SDS011;50724;42.376;23.768;2023-05-07T01:18:45;16.20;;;7.90;;
64401;SDS011;50724;42.376;23.768;2023-05-07T01:24:49;19.40;;;8.07;;
64401;SDS011;50724;42.376;23.768;2023-05-07T01:27:50;15.20;;;8.82;;
64401;SDS011;50724;42.376;23.768;2023-05-07T01:30:51;14.67;;;8.27;;
64401;SDS011;50724;42.376;23.768;2023-05-07T01:33:55;15.00;;;8.40;;
64401;SDS011;50724;42.376;23.768;2023-05-07T01:36:59;14.05;;;7.70;;
64401;SDS011;50724;42.376;23.768;2023-05-07T01:40:01;15.80;;;9.07;;
64401;SDS011;50724;42.376;23.768;2023-05-07T01:43:02;15.60;;;8.85;;
64401;SDS011;50724;42.376;23.768;2023-05-07T01:46:04;17.20;;;9.35;;
64401;SDS011;50724;42.376;23.768;2023-05-07T01:49:05;15.82;;;9.60;;
64401;SDS011;50724;42.376;23.768;2023-05-07T01:52:05;17.35;;;9.18;;
64401;SDS011;50724;42.376;23.768;2023-05-07T01:55:06;15.90;;;10.10;;
64401;SDS011;50724;42.376;23.768;2023-05-07T01:58:07;20.60;;;10.32;;
64401;SDS011;50724;42.376;23.768;2023-05-07T02:01:07;14.73;;;9.77;;
64401;SDS011;50724;42.376;23.768;2023-05-07T02:04:07;14.93;;;9.33;;
64401;SDS011;50724;42.376;23.768;2023-05-07T02:07:08;15.63;;;10.37;;
64401;SDS011;50724;42.376;23.768;2023-05-07T02:10:08;24.27;;;12.93;;
64401;SDS011;50724;42.376;23.768;2023-05-07T02:13:09;25.33;;;13.00;;
64401;SDS011;50724;42.376;23.768;2023-05-07T02:16:10;20.23;;;12.83;;
64401;SDS011;50724;42.376;23.768;2023-05-07T02:19:10;20.25;;;11.77;;
64401;SDS011;50724;42.376;23.768;2023-05-07T02:22:11;20.80;;;12.73;;
64401;SDS011;50724;42.376;23.768;2023-05-07T02:25:11;20.93;;;11.77;;
64401;SDS011;50724;42.376;23.768;2023-05-07T02:28:12;22.83;;;11.80;;
64401;SDS011;50724;42.376;23.768;2023-05-07T02:31:12;26.55;;;12.38;;
64401;SDS011;50724;42.376;23.768;2023-05-07T02:34:13;18.90;;;11.95;;
64401;SDS011;50724;42.376;23.768;2023-05-07T02:37:13;20.43;;;12.10;;
64401;SDS011;50724;42.376;23.768;2023-05-07T02:40:13;20.75;;;11.90;;
64401;SDS011;50724;42.376;23.768;2023-05-07T02:43:14;19.40;;;12.02;;
64401;SDS011;50724;42.376;23.768;2023-05-07T02:46:14;22.75;;;12.23;;
64401;SDS011;50724;42.376;23.768;2023-05-07T02:49:15;17.00;;;10.23;;
64401;SDS011;50724;42.376;23.768;2023-05-07T02:52:16;18.00;;;10.53;;
64401;SDS011;50724;42.376;23.768;2023-05-07T02:55:16;17.93;;;10.67;;
64401;SDS011;50724;42.376;23.768;2023-05-07T02:58:16;22.60;;;11.35;;
64401;SDS011;50724;42.376;23.768;2023-05-07T03:01:17;19.73;;;11.23;;
64401;SDS011;50724;42.376;23.768;2023-05-07T03:04:17;20.15;;;12.10;;
64401;SDS011;50724;42.376;23.768;2023-05-07T03:07:18;20.50;;;12.18;;
64401;SDS011;50724;42.376;23.768;2023-05-07T03:10:18;20.77;;;10.67;;
64401;SDS011;50724;42.376;23.768;2023-05-07T03:13:19;19.05;;;10.95;;
64401;SDS011;50724;42.376;23.768;2023-05-07T03:16:19;20.55;;;11.82;;
64401;SDS011;50724;42.376;23.768;2023-05-07T03:19:19;19.25;;;11.05;;
64401;SDS011;50724;42.376;23.768;2023-05-07T03:22:20;22.85;;;11.52;;
64401;SDS011;50724;42.376;23.768;2023-05-07T03:25:20;20.20;;;11.70;;
64401;SDS011;50724;42.376;23.768;2023-05-07T03:28:32;23.42;;;11.88;;
64401;SDS011;50724;42.376;23.768;2023-05-07T03:31:33;21.63;;;11.57;;
64401;SDS011;50724;42.376;23.768;2023-05-07T03:34:41;23.50;;;11.90;;
64401;SDS011;50724;42.376;23.768;2023-05-07T03:37:42;20.65;;;12.30;;
64401;SDS011;50724;42.376;23.768;2023-05-07T03:40:42;21.92;;;12.52;;
64401;SDS011;50724;42.376;23.768;2023-05-07T03:43:42;28.48;;;13.80;;
64401;SDS011;50724;42.376;23.768;2023-05-07T03:46:43;28.58;;;14.85;;
64401;SDS011;50724;42.376;23.768;2023-05-07T03:49:43;25.77;;;14.10;;
64401;SDS011;50724;42.376;23.768;2023-05-07T03:52:44;29.30;;;14.18;;
64401;SDS011;50724;42.376;23.768;2023-05-07T03:55:45;26.05;;;13.57;;
64401;SDS011;50724;42.376;23.768;2023-05-07T03:58:45;24.45;;;13.70;;
64401;SDS011;50724;42.376;23.768;2023-05-07T04:01:46;28.08;;;13.40;;
64401;SDS011;50724;42.376;23.768;2023-05-07T04:04:47;28.73;;;12.98;;
64401;SDS011;50724;42.376;23.768;2023-05-07T04:07:48;23.00;;;12.60;;
64401;SDS011;50724;42.376;23.768;2023-05-07T04:10:54;19.45;;;11.50;;
64401;SDS011;50724;42.376;23.768;2023-05-07T04:13:57;22.67;;;11.68;;
64401;SDS011;50724;42.376;23.768;2023-05-07T04:16:58;22.00;;;12.07;;
64401;SDS011;50724;42.376;23.768;2023-05-07T04:19:59;20.33;;;11.13;;
64401;SDS011;50724;42.376;23.768;2023-05-07T04:22:59;19.98;;;10.00;;
64401;SDS011;50724;42.376;23.768;2023-05-07T04:26:00;18.38;;;10.60;;
64401;SDS011;50724;42.376;23.768;2023-05-07T04:29:00;15.55;;;8.70;;
64401;SDS011;50724;42.376;23.768;2023-05-07T04:32:01;18.58;;;8.82;;
64401;SDS011;50724;42.376;23.768;2023-05-07T04:35:02;16.67;;;7.72;;
64401;SDS011;50724;42.376;23.768;2023-05-07T04:38:02;15.75;;;8.50;;
64401;SDS011;50724;42.376;23.768;2023-05-07T04:41:03;15.55;;;7.78;;
64401;SDS011;50724;42.376;23.768;2023-05-07T04:44:05;13.20;;;7.93;;
64401;SDS011;50724;42.376;23.768;2023-05-07T04:47:05;13.70;;;6.80;;
64401;SDS011;50724;42.376;23.768;2023-05-07T04:50:06;14.90;;;7.68;;
64401;SDS011;50724;42.376;23.768;2023-05-07T04:53:08;9.90;;;7.13;;
64401;SDS011;50724;42.376;23.768;2023-05-07T04:56:08;12.00;;;7.17;;
64401;SDS011;50724;42.376;23.768;2023-05-07T04:59:09;14.10;;;7.32;;
64401;SDS011;50724;42.376;23.768;2023-05-07T05:02:10;10.75;;;6.88;;
64401;SDS011;50724;42.376;23.768;2023-05-07T05:05:10;11.70;;;7.35;;
64401;SDS011;50724;42.376;23.768;2023-05-07T05:08:11;10.93;;;6.25;;
64401;SDS011;50724;42.376;23.768;2023-05-07T05:11:12;12.77;;;6.53;;
64401;SDS011;50724;42.376;23.768;2023-05-07T05:14:12;11.73;;;6.35;;
64401;SDS011;50724;42.376;23.768;2023-05-07T05:17:13;9.52;;;6.18;;
64401;SDS011;50724;42.376;23.768;2023-05-07T05:20:13;10.32;;;6.53;;
64401;SDS011;50724;42.376;23.768;2023-05-07T05:23:14;10.30;;;5.65;;
64401;SDS011;50724;42.376;23.768;2023-05-07T05:26:14;8.32;;;5.35;;
64401;SDS011;50724;42.376;23.768;2023-05-07T05:29:15;11.20;;;6.13;;
64401;SDS011;50724;42.376;23.768;2023-05-07T05:32:15;13.23;;;5.63;;
64401;SDS011;50724;42.376;23.768;2023-05-07T05:35:16;8.68;;;5.40;;
64401;SDS011;50724;42.376;23.768;2023-05-07T05:38:16;16.48;;;7.57;;
64401;SDS011;50724;42.376;23.768;2023-05-07T05:41:16;11.77;;;5.32;;
64401;SDS011;50724;42.376;23.768;2023-05-07T05:44:17;8.97;;;5.43;;
64401;SDS011;50724;42.376;23.768;2023-05-07T05:47:17;12.33;;;5.67;;
64401;SDS011;50724;42.376;23.768;2023-05-07T05:50:18;8.63;;;4.75;;
64401;SDS011;50724;42.376;23.768;2023-05-07T05:53:18;12.55;;;5.72;;
64401;SDS011;50724;42.376;23.768;2023-05-07T05:56:19;11.90;;;5.47;;
64401;SDS011;50724;42.376;23.768;2023-05-07T05:59:19;9.57;;;5.20;;
64401;SDS011;50724;42.376;23.768;2023-05-07T06:02:20;11.00;;;4.70;;
64401;SDS011;50724;42.376;23.768;2023-05-07T06:05:20;21.58;;;8.25;;
64401;SDS011;50724;42.376;23.768;2023-05-07T06:08:21;8.25;;;4.95;;
64401;SDS011;50724;42.376;23.768;2023-05-07T06:11:21;7.07;;;4.70;;
64401;SDS011;50724;42.376;23.768;2023-05-07T06:14:22;9.15;;;4.63;;
64401;SDS011;50724;42.376;23.768;2023-05-07T06:17:22;9.52;;;4.25;;
64401;SDS011;50724;42.376;23.768;2023-05-07T06:20:23;8.87;;;3.90;;
64401;SDS011;50724;42.376;23.768;2023-05-07T06:23:23;9.43;;;4.50;;
64401;SDS011;50724;42.376;23.768;2023-05-07T06:26:24;19.63;;;7.03;;
64401;SDS011;50724;42.376;23.768;2023-05-07T06:29:25;11.38;;;5.20;;
64401;SDS011;50724;42.376;23.768;2023-05-07T06:32:25;9.68;;;4.00;;
64401;SDS011;50724;42.376;23.768;2023-05-07T06:35:26;7.00;;;4.00;;
64401;SDS011;50724;42.376;23.768;2023-05-07T06:38:26;15.80;;;5.77;;
64401;SDS011;50724;42.376;23.768;2023-05-07T06:41:27;6.83;;;3.90;;
64401;SDS011;50724;42.376;23.768;2023-05-07T06:44:27;10.70;;;4.03;;
64401;SDS011;50724;42.376;23.768;2023-05-07T06:47:28;7.95;;;4.38;;
64401;SDS011;50724;42.376;23.768;2023-05-07T06:50:28;10.35;;;4.55;;
64401;SDS011;50724;42.376;23.768;2023-05-07T06:53:28;9.33;;;4.20;;
64401;SDS011;50724;42.376;23.768;2023-05-07T06:56:30;10.10;;;4.28;;
64401;SDS011;50724;42.376;23.768;2023-05-07T06:59:31;9.13;;;3.75;;
64401;SDS011;50724;42.376;23.768;2023-05-07T07:02:32;5.17;;;3.17;;
64401;SDS011;50724;42.376;23.768;2023-05-07T07:05:32;8.82;;;4.20;;
64401;SDS011;50724;42.376;23.768;2023-05-07T07:08:33;5.87;;;3.20;;
64401;SDS011;50724;42.376;23.768;2023-05-07T07:11:34;7.55;;;3.53;;
64401;SDS011;50724;42.376;23.768;2023-05-07T07:14:35;9.85;;;3.83;;
64401;SDS011;50724;42.376;23.768;2023-05-07T07:17:35;18.93;;;5.67;;
64401;SDS011;50724;42.376;23.768;2023-05-07T07:20:35;10.93;;;4.47;;
64401;SDS011;50724;42.376;23.768;2023-05-07T07:23:36;6.90;;;3.87;;
64401;SDS011;50724;42.376;23.768;2023-05-07T07:26:36;12.50;;;4.60;;
64401;SDS011;50724;42.376;23.768;2023-05-07T07:29:37;21.30;;;6.72;;
64401;SDS011;50724;42.376;23.768;2023-05-07T07:32:37;11.57;;;5.60;;
64401;SDS011;50724;42.376;23.768;2023-05-07T07:35:37;7.82;;;4.00;;
64401;SDS011;50724;42.376;23.768;2023-05-07T07:38:38;7.93;;;3.97;;
64401;SDS011;50724;42.376;23.768;2023-05-07T07:41:38;14.93;;;5.55;;
64401;SDS011;50724;42.376;23.768;2023-05-07T07:44:39;10.13;;;4.90;;
64401;SDS011;50724;42.376;23.768;2023-05-07T07:47:39;8.50;;;4.25;;
64401;SDS011;50724;42.376;23.768;2023-05-07T07:50:40;8.93;;;4.78;;
64401;SDS011;50724;42.376;23.768;2023-05-07T07:53:41;18.05;;;7.18;;
64401;SDS011;50724;42.376;23.768;2023-05-07T07:56:41;9.40;;;4.88;;
64401;SDS011;50724;42.376;23.768;2023-05-07T07:59:41;13.97;;;6.13;;
64401;SDS011;50724;42.376;23.768;2023-05-07T08:02:43;8.63;;;4.78;;
64401;SDS011;50724;42.376;23.768;2023-05-07T08:05:43;7.05;;;4.30;;
64401;SDS011;50724;42.376;23.768;2023-05-07T08:08:44;8.33;;;4.57;;
64401;SDS011;50724;42.376;23.768;2023-05-07T08:11:44;8.82;;;4.57;;
64401;SDS011;50724;42.376;23.768;2023-05-07T08:14:45;8.35;;;3.85;;
64401;SDS011;50724;42.376;23.768;2023-05-07T08:17:45;9.65;;;4.15;;
64401;SDS011;50724;42.376;23.768;2023-05-07T08:20:46;9.50;;;4.43;;
64401;SDS011;50724;42.376;23.768;2023-05-07T08:23:47;10.00;;;4.20;;
64401;SDS011;50724;42.376;23.768;2023-05-07T08:26:47;7.20;;;3.93;;
64401;SDS011;50724;42.376;23.768;2023-05-07T08:29:47;8.82;;;4.28;;
64401;SDS011;50724;42.376;23.768;2023-05-07T08:32:48;6.43;;;3.72;;
64401;SDS011;50724;42.376;23.768;2023-05-07T08:35:49;5.90;;;3.40;;
64401;SDS011;50724;42.376;23.768;2023-05-07T08:38:49;5.40;;;3.07;;
64401;SDS011;50724;42.376;23.768;2023-05-07T08:41:50;6.55;;;3.30;;
64401;SDS011;50724;42.376;23.768;2023-05-07T08:44:56;5.80;;;3.38;;
64401;SDS011;50724;42.376;23.768;2023-05-07T08:48:02;6.65;;;3.20;;
64401;SDS011;50724;42.376;23.768;2023-05-07T08:51:05;5.03;;;2.90;;
64401;SDS011;50724;42.376;23.768;2023-05-07T08:54:06;5.63;;;2.80;;
64401;SDS011;50724;42.376;23.768;2023-05-07T08:57:07;6.00;;;2.45;;
64401;SDS011;50724;42.376;23.768;2023-05-07T09:00:08;6.07;;;3.28;;
64401;SDS011;50724;42.376;23.768;2023-05-07T09:03:09;6.00;;;2.95;;
64401;SDS011;50724;42.376;23.768;2023-05-07T09:06:14;5.15;;;2.80;;
64401;SDS011;50724;42.376;23.768;2023-05-07T09:09:15;6.85;;;3.50;;
64401;SDS011;50724;42.376;23.768;2023-05-07T09:12:18;8.27;;;3.15;;
64401;SDS011;50724;42.376;23.768;2023-05-07T09:15:19;7.10;;;2.55;;
64401;SDS011;50724;42.376;23.768;2023-05-07T09:18:19;5.53;;;3.00;;
64401;SDS011;50724;42.376;23.768;2023-05-07T09:21:20;4.90;;;2.70;;
64401;SDS011;50724;42.376;23.768;2023-05-07T09:24:31;4.70;;;2.75;;
64401;SDS011;50724;42.376;23.768;2023-05-07T09:27:35;4.78;;;2.60;;
64401;SDS011;50724;42.376;23.768;2023-05-07T09:30:43;5.78;;;2.70;;
64401;SDS011;50724;42.376;23.768;2023-05-07T09:33:44;5.13;;;2.95;;
64401;SDS011;50724;42.376;23.768;2023-05-07T09:36:45;4.88;;;3.00;;
64401;SDS011;50724;42.376;23.768;2023-05-07T09:39:46;5.63;;;2.58;;
64401;SDS011;50724;42.376;23.768;2023-05-07T09:42:47;4.10;;;2.60;;
64401;SDS011;50724;42.376;23.768;2023-05-07T09:45:49;6.38;;;2.53;;
64401;SDS011;50724;42.376;23.768;2023-05-07T09:48:51;7.03;;;2.80;;
64401;SDS011;50724;42.376;23.768;2023-05-07T09:51:54;6.18;;;3.13;;
64401;SDS011;50724;42.376;23.768;2023-05-07T09:54:55;4.35;;;2.60;;
64401;SDS011;50724;42.376;23.768;2023-05-07T09:57:59;5.30;;;2.83;;
64401;SDS011;50724;42.376;23.768;2023-05-07T10:01:02;5.25;;;2.90;;
64401;SDS011;50724;42.376;23.768;2023-05-07T10:04:04;5.57;;;2.95;;
64401;SDS011;50724;42.376;23.768;2023-05-07T10:07:05;7.43;;;3.10;;
64401;SDS011;50724;42.376;23.768;2023-05-07T10:10:07;6.50;;;3.35;;
64401;SDS011;50724;42.376;23.768;2023-05-07T10:13:08;8.07;;;3.60;;
64401;SDS011;50724;42.376;23.768;2023-05-07T10:16:10;6.65;;;3.45;;
64401;SDS011;50724;42.376;23.768;2023-05-07T10:19:11;6.53;;;3.00;;
64401;SDS011;50724;42.376;23.768;2023-05-07T10:22:12;6.25;;;3.42;;
64401;SDS011;50724;42.376;23.768;2023-05-07T10:25:36;5.88;;;3.22;;
64401;SDS011;50724;42.376;23.768;2023-05-07T10:28:37;5.88;;;3.13;;
64401;SDS011;50724;42.376;23.768;2023-05-07T10:34:49;5.70;;;3.00;;
64401;SDS011;50724;42.376;23.768;2023-05-07T10:37:53;5.63;;;2.90;;
64401;SDS011;50724;42.376;23.768;2023-05-07T10:40:54;9.25;;;3.03;;
64401;SDS011;50724;42.376;23.768;2023-05-07T10:43:54;6.18;;;3.30;;
64401;SDS011;50724;42.376;23.768;2023-05-07T10:47:11;5.00;;;2.92;;
64401;SDS011;50724;42.376;23.768;2023-05-07T11:02:20;6.45;;;2.92;;
64401;SDS011;50724;42.376;23.768;2023-05-07T11:05:23;6.83;;;2.90;;
64401;SDS011;50724;42.376;23.768;2023-05-07T11:08:24;7.03;;;3.08;;
64401;SDS011;50724;42.376;23.768;2023-05-07T11:14:44;5.28;;;3.22;;
64401;SDS011;50724;42.376;23.768;2023-05-07T11:20:59;5.60;;;3.05;;
64401;SDS011;50724;42.376;23.768;2023-05-07T11:24:00;7.38;;;3.20;;
64401;SDS011;50724;42.376;23.768;2023-05-07T11:27:01;6.80;;;3.10;;
64401;SDS011;50724;42.376;23.768;2023-05-07T11:30:02;4.80;;;3.08;;
64401;SDS011;50724;42.376;23.768;2023-05-07T11:33:03;6.30;;;3.00;;
64401;SDS011;50724;42.376;23.768;2023-05-07T11:39:22;6.05;;;3.28;;
64401;SDS011;50724;42.376;23.768;2023-05-07T11:42:37;5.53;;;2.55;;
64401;SDS011;50724;42.376;23.768;2023-05-07T11:45:38;5.30;;;3.10;;
64401;SDS011;50724;42.376;23.768;2023-05-07T11:48:38;5.07;;;2.93;;
64401;SDS011;50724;42.376;23.768;2023-05-07T11:51:39;7.10;;;3.10;;
64401;SDS011;50724;42.376;23.768;2023-05-07T11:54:44;4.78;;;2.83;;
64401;SDS011;50724;42.376;23.768;2023-05-07T11:57:49;7.63;;;3.10;;
64401;SDS011;50724;42.376;23.768;2023-05-07T12:00:50;5.18;;;3.03;;
64401;SDS011;50724;42.376;23.768;2023-05-07T12:03:51;7.13;;;3.00;;
64401;SDS011;50724;42.376;23.768;2023-05-07T12:06:55;5.55;;;3.25;;
64401;SDS011;50724;42.376;23.768;2023-05-07T12:09:56;9.10;;;3.00;;
64401;SDS011;50724;42.376;23.768;2023-05-07T12:12:59;5.35;;;3.03;;
64401;SDS011;50724;42.376;23.768;2023-05-07T12:16:00;5.50;;;3.00;;
64401;SDS011;50724;42.376;23.768;2023-05-07T12:19:03;5.25;;;2.88;;
64401;SDS011;50724;42.376;23.768;2023-05-07T12:22:03;6.88;;;3.08;;
64401;SDS011;50724;42.376;23.768;2023-05-07T12:25:04;7.10;;;3.35;;
64401;SDS011;50724;42.376;23.768;2023-05-07T12:28:07;7.68;;;3.55;;
64401;SDS011;50724;42.376;23.768;2023-05-07T12:31:07;6.28;;;3.30;;
64401;SDS011;50724;42.376;23.768;2023-05-07T12:34:10;6.10;;;3.10;;
64401;SDS011;50724;42.376;23.768;2023-05-07T12:37:11;5.95;;;3.00;;
64401;SDS011;50724;42.376;23.768;2023-05-07T12:46:20;5.97;;;3.10;;
64401;SDS011;50724;42.376;23.768;2023-05-07T12:49:20;5.85;;;2.90;;
64401;SDS011;50724;42.376;23.768;2023-05-07T12:52:20;7.85;;;2.83;;
64401;SDS011;50724;42.376;23.768;2023-05-07T12:55:21;5.97;;;2.92;;
64401;SDS011;50724;42.376;23.768;2023-05-07T13:01:29;5.22;;;3.00;;
64401;SDS011;50724;42.376;23.768;2023-05-07T13:04:31;5.20;;;2.97;;
64401;SDS011;50724;42.376;23.768;2023-05-07T13:07:31;6.80;;;3.20;;
64401;SDS011;50724;42.376;23.768;2023-05-07T13:10:32;5.37;;;3.03;;
64401;SDS011;50724;42.376;23.768;2023-05-07T13:13:34;6.70;;;2.92;;
64401;SDS011;50724;42.376;23.768;2023-05-07T13:16:35;4.68;;;2.35;;
64401;SDS011;50724;42.376;23.768;2023-05-07T13:19:35;6.85;;;3.35;;
64401;SDS011;50724;42.376;23.768;2023-05-07T13:22:37;6.03;;;3.05;;
64401;SDS011;50724;42.376;23.768;2023-05-07T13:25:37;5.78;;;2.90;;
64401;SDS011;50724;42.376;23.768;2023-05-07T13:28:38;5.07;;;3.03;;
64401;SDS011;50724;42.376;23.768;2023-05-07T13:31:38;5.47;;;2.77;;
64401;SDS011;50724;42.376;23.768;2023-05-07T13:34:42;7.38;;;3.15;;
64401;SDS011;50724;42.376;23.768;2023-05-07T13:37:43;5.95;;;3.03;;
64401;SDS011;50724;42.376;23.768;2023-05-07T13:40:43;7.03;;;2.87;;
64401;SDS011;50724;42.376;23.768;2023-05-07T13:43:44;6.73;;;3.27;;
64401;SDS011;50724;42.376;23.768;2023-05-07T13:46:44;9.35;;;3.70;;
64401;SDS011;50724;42.376;23.768;2023-05-07T13:49:45;6.63;;;3.30;;
64401;SDS011;50724;42.376;23.768;2023-05-07T13:52:45;6.87;;;3.60;;
64401;SDS011;50724;42.376;23.768;2023-05-07T13:55:50;6.55;;;4.07;;
64401;SDS011;50724;42.376;23.768;2023-05-07T13:58:51;7.47;;;3.40;;
64401;SDS011;50724;42.376;23.768;2023-05-07T14:01:51;5.93;;;3.30;;
64401;SDS011;50724;42.376;23.768;2023-05-07T14:04:51;5.60;;;2.70;;
64401;SDS011;50724;42.376;23.768;2023-05-07T14:07:52;7.10;;;2.90;;
64401;SDS011;50724;42.376;23.768;2023-05-07T14:10:53;6.43;;;2.97;;
64401;SDS011;50724;42.376;23.768;2023-05-07T14:13:53;4.85;;;2.80;;
64401;SDS011;50724;42.376;23.768;2023-05-07T14:16:54;7.90;;;3.13;;
64401;SDS011;50724;42.376;23.768;2023-05-07T14:19:54;7.80;;;3.17;;
64401;SDS011;50724;42.376;23.768;2023-05-07T14:22:55;8.20;;;3.58;;
64401;SDS011;50724;42.376;23.768;2023-05-07T14:25:55;7.90;;;3.30;;
64401;SDS011;50724;42.376;23.768;2023-05-07T14:28:57;4.90;;;3.05;;
64401;SDS011;50724;42.376;23.768;2023-05-07T14:31:58;6.20;;;2.70;;
64401;SDS011;50724;42.376;23.768;2023-05-07T14:34:58;6.82;;;3.25;;
64401;SDS011;50724;42.376;23.768;2023-05-07T14:37:59;6.07;;;3.67;;
64401;SDS011;50724;42.376;23.768;2023-05-07T14:40:59;7.18;;;3.35;;
64401;SDS011;50724;42.376;23.768;2023-05-07T14:44:00;5.03;;;3.45;;
64401;SDS011;50724;42.376;23.768;2023-05-07T14:47:01;6.38;;;2.90;;
64401;SDS011;50724;42.376;23.768;2023-05-07T14:50:02;5.97;;;2.93;;
64401;SDS011;50724;42.376;23.768;2023-05-07T14:53:02;6.03;;;3.47;;
64401;SDS011;50724;42.376;23.768;2023-05-07T14:56:04;6.00;;;3.30;;
64401;SDS011;50724;42.376;23.768;2023-05-07T14:59:13;8.63;;;2.97;;
64401;SDS011;50724;42.376;23.768;2023-05-07T15:02:16;6.13;;;3.00;;
64401;SDS011;50724;42.376;23.768;2023-05-07T15:05:17;6.50;;;3.10;;
64401;SDS011;50724;42.376;23.768;2023-05-07T15:08:19;4.88;;;3.00;;
64401;SDS011;50724;42.376;23.768;2023-05-07T15:11:19;4.70;;;2.80;;
64401;SDS011;50724;42.376;23.768;2023-05-07T15:14:20;5.93;;;2.90;;
64401;SDS011;50724;42.376;23.768;2023-05-07T15:23:22;6.40;;;3.13;;
64401;SDS011;50724;42.376;23.768;2023-05-07T15:26:31;5.93;;;3.40;;
64401;SDS011;50724;42.376;23.768;2023-05-07T15:29:32;7.43;;;2.63;;
64401;SDS011;50724;42.376;23.768;2023-05-07T15:32:32;10.20;;;3.67;;
64401;SDS011;50724;42.376;23.768;2023-05-07T15:35:33;9.50;;;3.20;;
64401;SDS011;50724;42.376;23.768;2023-05-07T15:38:34;6.05;;;2.90;;
64401;SDS011;50724;42.376;23.768;2023-05-07T15:41:34;6.03;;;3.75;;
64401;SDS011;50724;42.376;23.768;2023-05-07T15:44:36;5.50;;;3.15;;
64401;SDS011;50724;42.376;23.768;2023-05-07T15:47:37;6.50;;;3.10;;
64401;SDS011;50724;42.376;23.768;2023-05-07T15:50:37;6.90;;;2.97;;
64401;SDS011;50724;42.376;23.768;2023-05-07T15:53:38;7.30;;;3.33;;
64401;SDS011;50724;42.376;23.768;2023-05-07T15:56:39;4.85;;;2.97;;
64401;SDS011;50724;42.376;23.768;2023-05-07T15:59:40;7.30;;;3.53;;
64401;SDS011;50724;42.376;23.768;2023-05-07T16:02:41;6.55;;;3.00;;
64401;SDS011;50724;42.376;23.768;2023-05-07T16:05:41;6.30;;;3.20;;
64401;SDS011;50724;42.376;23.768;2023-05-07T16:08:42;10.00;;;4.10;;
64401;SDS011;50724;42.376;23.768;2023-05-07T16:11:43;6.30;;;3.47;;
64401;SDS011;50724;42.376;23.768;2023-05-07T16:14:44;7.05;;;3.47;;
64401;SDS011;50724;42.376;23.768;2023-05-07T16:17:45;8.13;;;4.05;;
64401;SDS011;50724;42.376;23.768;2023-05-07T16:20:47;8.40;;;3.58;;
64401;SDS011;50724;42.376;23.768;2023-05-07T16:23:48;5.80;;;3.50;;
64401;SDS011;50724;42.376;23.768;2023-05-07T16:26:49;6.25;;;3.20;;
64401;SDS011;50724;42.376;23.768;2023-05-07T16:29:50;10.43;;;3.73;;
64401;SDS011;50724;42.376;23.768;2023-05-07T16:32:50;6.07;;;3.20;;
64401;SDS011;50724;42.376;23.768;2023-05-07T16:35:51;8.20;;;3.65;;
64401;SDS011;50724;42.376;23.768;2023-05-07T16:38:52;9.13;;;5.43;;
64401;SDS011;50724;42.376;23.768;2023-05-07T16:41:52;7.23;;;3.87;;
64401;SDS011;50724;42.376;23.768;2023-05-07T16:44:53;6.32;;;3.25;;
64401;SDS011;50724;42.376;23.768;2023-05-07T16:47:53;6.95;;;3.50;;
64401;SDS011;50724;42.376;23.768;2023-05-07T16:50:56;7.68;;;3.55;;
64401;SDS011;50724;42.376;23.768;2023-05-07T16:53:57;6.70;;;3.75;;
64401;SDS011;50724;42.376;23.768;2023-05-07T16:56:57;8.43;;;4.33;;
64401;SDS011;50724;42.376;23.768;2023-05-07T17:00:08;6.75;;;3.88;;
64401;SDS011;50724;42.376;23.768;2023-05-07T17:03:10;7.68;;;3.40;;
64401;SDS011;50724;42.376;23.768;2023-05-07T17:06:11;7.27;;;3.93;;
64401;SDS011;50724;42.376;23.768;2023-05-07T17:09:14;5.93;;;4.05;;
64401;SDS011;50724;42.376;23.768;2023-05-07T17:12:14;7.78;;;3.97;;
64401;SDS011;50724;42.376;23.768;2023-05-07T17:15:15;9.00;;;3.80;;
64401;SDS011;50724;42.376;23.768;2023-05-07T17:18:15;6.97;;;3.70;;
64401;SDS011;50724;42.376;23.768;2023-05-07T17:21:16;6.57;;;3.47;;
64401;SDS011;50724;42.376;23.768;2023-05-07T17:24:16;6.75;;;3.53;;
64401;SDS011;50724;42.376;23.768;2023-05-07T17:27:17;6.13;;;3.38;;
64401;SDS011;50724;42.376;23.768;2023-05-07T17:30:17;6.97;;;3.85;;
64401;SDS011;50724;42.376;23.768;2023-05-07T17:33:18;8.05;;;4.63;;
64401;SDS011;50724;42.376;23.768;2023-05-07T17:36:18;8.10;;;3.90;;
64401;SDS011;50724;42.376;23.768;2023-05-07T17:39:18;7.25;;;4.00;;
64401;SDS011;50724;42.376;23.768;2023-05-07T17:42:28;7.40;;;3.17;;
64401;SDS011;50724;42.376;23.768;2023-05-07T17:45:28;8.50;;;4.15;;
64401;SDS011;50724;42.376;23.768;2023-05-07T17:48:31;6.68;;;3.75;;
64401;SDS011;50724;42.376;23.768;2023-05-07T17:51:31;7.23;;;4.07;;
64401;SDS011;50724;42.376;23.768;2023-05-07T17:54:31;13.23;;;4.45;;
64401;SDS011;50724;42.376;23.768;2023-05-07T17:57:32;7.50;;;4.07;;
64401;SDS011;50724;42.376;23.768;2023-05-07T18:00:36;8.23;;;4.95;;
64401;SDS011;50724;42.376;23.768;2023-05-07T18:03:37;11.30;;;5.65;;
64401;SDS011;50724;42.376;23.768;2023-05-07T18:06:37;12.67;;;8.20;;
64401;SDS011;50724;42.376;23.768;2023-05-07T18:09:38;11.63;;;6.68;;
64401;SDS011;50724;42.376;23.768;2023-05-07T18:12:40;11.20;;;6.78;;
64401;SDS011;50724;42.376;23.768;2023-05-07T18:15:40;9.55;;;5.47;;
64401;SDS011;50724;42.376;23.768;2023-05-07T18:18:41;14.13;;;8.35;;
64401;SDS011;50724;42.376;23.768;2023-05-07T18:21:41;9.80;;;6.60;;
64401;SDS011;50724;42.376;23.768;2023-05-07T18:24:41;5.78;;;3.30;;
64401;SDS011;50724;42.376;23.768;2023-05-07T18:27:42;6.63;;;3.67;;
64401;SDS011;50724;42.376;23.768;2023-05-07T18:30:42;8.05;;;4.18;;